Time;durP1;ratioP1;P1;durP2;ratioP2;P2;SDS_P1;SDS_P2;PMS_P1;PMS_P2;Temp;Humidity;BMP_temperature;BMP_pressure;BME280_temperature;BME280_humidity;BME280_pressure;Samples;Min_cycle;Max_cycle;Signal;HPM_P1;HPM_P2
2021/09/15 00:01:35;;;;;;;6.20;4.33;;;;;;;11.86;82.58;99850.73;1683636;84;21647;-69
2021/09/15 00:04:02;;;;;;;;;;;;;;;11.78;82.79;99848.56;1724339;82;21530;-69
2021/09/15 00:06:28;;;;;;;6.78;4.25;;;;;;;11.75;82.87;99847.76;1711749;82;20109;-69
2021/09/15 00:08:56;;;;;;;5.30;3.90;;;;;;;11.74;82.81;99847.48;1735696;82;21204;-69
2021/09/15 00:11:25;;;;;;;6.25;4.40;;;;;;;11.70;82.82;99849.91;1738558;82;21056;-69
2021/09/15 00:13:53;;;;;;;7.40;4.65;;;;;;;11.63;82.92;99849.37;1733232;82;21538;-69
2021/09/15 00:16:20;;;;;;;7.35;4.30;;;;;;;11.63;83.11;99852.65;1704729;82;21089;-69
2021/09/15 00:18:47;;;;;;;8.33;4.70;;;;;;;11.66;83.13;99861.09;1736331;82;21511;-69
2021/09/15 00:21:13;;;;;;;7.80;4.80;;;;;;;11.68;83.13;99860.83;1732861;82;21581;-69
2021/09/15 00:23:40;;;;;;;6.67;4.58;;;;;;;11.66;83.20;99862.45;1739433;82;21677;-69
2021/09/15 00:26:06;;;;;;;;;;;;;;;11.60;83.40;99862.75;1733406;82;21601;-69
2021/09/15 00:28:32;;;;;;;6.83;4.35;;;;;;;11.58;83.43;99871.22;1736693;82;20138;-69
2021/09/15 00:30:59;;;;;;;7.85;4.65;;;;;;;11.57;83.29;99870.12;1737030;82;21809;-69
2021/09/15 00:33:25;;;;;;;6.40;4.50;;;;;;;11.55;83.24;99871.74;1737299;82;21505;-69
2021/09/15 00:35:53;;;;;;;7.90;4.60;;;;;;;11.47;83.36;99866.33;1714127;82;21435;-69
2021/09/15 00:38:19;;;;;;;;;;;;;;;11.40;83.54;99868.52;1627843;86;21102;-68
2021/09/15 00:40:45;;;;;;;6.55;4.58;;;;;;;11.41;83.51;99868.77;1695805;84;20179;-68
2021/09/15 00:43:12;;;;;;;8.45;4.40;;;;;;;11.35;83.55;99870.41;1656171;85;21015;-68
2021/09/15 00:45:39;;;;;;;6.62;5.12;;;;;;;11.33;83.56;99873.97;1713668;82;21577;-69
2021/09/15 00:48:06;;;;;;;5.78;4.25;;;;;;;11.22;83.62;99873.15;1716268;82;21854;-69
2021/09/15 00:50:33;;;;;;;7.28;4.47;;;;;;;11.17;83.63;99875.86;1728273;82;21008;-68
2021/09/15 00:53:01;;;;;;;;;;;;;;;11.17;83.50;99870.95;1645600;86;21007;-69
2021/09/15 00:55:28;;;;;;;6.62;4.58;;;;;;;11.14;83.40;99875.05;1671260;86;20147;-69
2021/09/15 00:57:56;;;;;;;8.33;4.47;;;;;;;11.01;83.58;99876.12;1658003;84;21000;-69
2021/09/15 01:00:25;;;;;;;6.28;4.70;;;;;;;10.92;83.76;99878.56;1692278;84;21069;-68
2021/09/15 01:02:52;;;;;;;7.05;4.47;;;;;;;10.90;83.75;99885.66;1680022;84;20977;-68
2021/09/15 01:05:20;;;;;;;6.80;4.33;;;;;;;10.90;83.53;99882.11;1738037;82;20999;-69
2021/09/15 01:07:47;;;;;;;8.08;4.50;;;;;;;10.84;83.40;99879.11;1751091;82;21348;-68
2021/09/15 01:10:13;;;;;;;5.60;3.95;;;;;;;10.75;83.56;99882.08;1731300;82;21038;-68
2021/09/15 01:15:17;;;;;;;8.03;4.70;;;;;;;10.74;83.56;99882.61;1802339;79;23362;-69
2021/09/15 01:17:49;;;;;;;7.87;4.83;;;;;;;10.66;83.54;99891.87;1684583;82;21047;-69
2021/09/15 01:20:37;;;;;;;7.45;4.67;;;;;;;10.57;83.72;99897.00;1735008;82;20976;-69
2021/09/15 01:23:23;;;;;;;7.72;4.37;;;;;;;10.56;83.71;99901.37;1720616;82;21015;-68
2021/09/15 01:26:03;;;;;;;8.85;5.17;;;;;;;10.56;83.66;99897.29;1717432;82;21027;-68
2021/09/15 01:28:32;;;;;;;7.25;4.78;;;;;;;10.53;83.69;99906.78;1671314;85;21609;-69
2021/09/15 01:31:04;;;;;;;6.25;3.95;;;;;;;10.46;83.85;99902.95;1669805;85;21029;-69
2021/09/15 01:33:31;;;;;;;7.83;4.72;;;;;;;10.43;83.74;99891.78;1686400;84;21089;-69
2021/09/15 01:35:57;;;;;;;7.72;4.65;;;;;;;10.44;83.31;99894.25;1663710;85;21554;-69
2021/09/15 01:38:24;;;;;;;6.05;4.20;;;;;;;10.42;82.95;99895.05;1687451;84;21044;-69
2021/09/15 01:40:52;;;;;;;6.78;3.80;;;;;;;10.32;82.79;99896.38;1689838;85;21121;-69
2021/09/15 01:43:18;;;;;;;6.60;4.12;;;;;;;10.21;82.89;99889.25;1700390;84;21011;-70
2021/09/15 01:45:45;;;;;;;7.08;3.83;;;;;;;10.16;82.83;99887.88;1685559;84;21038;-69
2021/09/15 01:48:22;;;;;;;5.37;3.67;;;;;;;10.15;82.52;99885.41;1691915;84;21034;-69
2021/09/15 01:50:50;;;;;;;6.72;3.90;;;;;;;10.12;82.33;99887.28;1701427;84;21759;-70
2021/09/15 01:53:19;;;;;;;5.90;4.47;;;;;;;10.05;82.33;99888.88;1700122;84;21178;-70
2021/09/15 01:55:45;;;;;;;6.03;4.30;;;;;;;9.94;82.48;99889.38;1710290;84;21066;-69
2021/09/15 01:58:23;;;;;;;7.53;4.10;;;;;;;9.91;82.54;99887.72;1696741;84;21070;-70
2021/09/15 02:00:55;;;;;;;5.90;3.85;;;;;;;9.91;82.41;99886.36;1692271;84;21078;-70
2021/09/15 02:03:24;;;;;;;6.58;4.17;;;;;;;9.90;82.28;99893.70;1662088;84;21047;-70
2021/09/15 02:05:56;;;;;;;6.10;4.05;;;;;;;9.86;82.31;99899.91;1706005;84;21130;-68
2021/09/15 02:08:32;;;;;;;8.20;4.40;;;;;;;9.76;82.53;99896.60;1709860;84;21066;-68
2021/09/15 02:11:11;;;;;;;6.70;4.65;;;;;;;9.66;82.80;99897.90;1707930;84;21193;-68
2021/09/15 02:13:37;;;;;;;;;;;;;;;9.61;82.99;99896.49;1689359;84;21068;-68
2021/09/15 02:16:05;;;;;;;6.22;4.20;;;;;;;9.63;82.89;99903.04;1676802;85;20427;-68
2021/09/15 02:18:32;;;;;;;6.80;4.50;;;;;;;9.60;82.96;99897.56;1653627;86;21105;-68
2021/09/15 02:21:00;;;;;;;6.33;4.55;;;;;;;9.56;82.99;99901.09;1690529;84;21064;-68
2021/09/15 02:23:33;;;;;;;7.83;4.87;;;;;;;9.47;83.15;99899.38;1675826;84;21075;-68
2021/09/15 02:26:02;;;;;;;8.73;5.12;;;;;;;9.45;83.26;99905.09;1664955;84;21050;-68
2021/09/15 02:28:30;;;;;;;6.33;4.58;;;;;;;9.46;83.15;99899.91;1701887;84;21145;-68
2021/09/15 02:30:58;;;;;;;7.95;4.92;;;;;;;9.48;83.25;99907.82;1700906;84;21139;-68
2021/09/15 02:33:29;;;;;;;7.40;5.22;;;;;;;9.43;83.41;99909.95;1690259;84;21098;-67
2021/09/15 02:36:00;;;;;;;7.25;5.30;;;;;;;9.39;83.73;99902.57;1703564;84;21106;-68
2021/09/15 02:38:46;;;;;;;7.53;4.83;;;;;;;9.41;83.86;99909.41;1666364;85;21083;-68
2021/09/15 02:41:30;;;;;;;9.43;4.80;;;;;;;9.44;83.86;99901.27;1671552;86;21074;-68
2021/09/15 02:43:58;;;;;;;8.05;5.03;;;;;;;9.47;83.82;99907.00;1661919;85;21063;-68
2021/09/15 02:46:35;;;;;;;;;;;;;;;9.47;83.78;99908.36;1703304;84;21110;-67
2021/09/15 02:49:06;;;;;;;7.80;5.33;;;;;;;9.41;84.02;99908.05;1691052;84;20136;-68
2021/09/15 02:51:35;;;;;;;10.18;5.25;;;;;;;9.41;84.49;99912.66;1669363;85;21075;-68
2021/09/15 02:54:03;;;;;;;6.22;5.03;;;;;;;9.48;84.87;99918.69;1665187;86;21023;-68
2021/09/15 02:56:34;;;;;;;6.03;4.60;;;;;;;9.56;85.01;99920.94;1684416;84;21535;-68
2021/09/15 02:59:12;;;;;;;7.22;4.83;;;;;;;9.61;85.11;99914.70;1676384;84;21570;-68
2021/09/15 03:01:43;;;;;;;9.00;5.40;;;;;;;9.63;85.22;99912.02;1677784;84;21066;-68
2021/09/15 03:04:14;;;;;;;7.65;5.00;;;;;;;9.63;85.40;99915.27;1693757;84;21039;-68
2021/09/15 03:06:43;;;;;;;6.75;4.85;;;;;;;9.61;85.65;99920.95;1690625;84;21079;-68
2021/09/15 03:09:11;;;;;;;5.78;4.50;;;;;;;9.66;85.61;99922.90;1654644;86;21034;-68
2021/09/15 03:11:37;;;;;;;8.53;4.78;;;;;;;9.68;85.56;99921.55;1688337;84;21499;-68
2021/09/15 03:14:03;;;;;;;;;;;;;;;9.70;85.53;99925.37;1681798;84;21642;-68
2021/09/15 03:16:32;;;;;;;9.58;4.60;;;;;;;9.64;85.67;99924.50;1694658;84;20143;-67
2021/09/15 03:19:01;;;;;;;6.42;4.65;;;;;;;9.63;85.69;99924.78;1695661;84;21561;-68
2021/09/15 03:21:30;;;;;;;5.62;4.10;;;;;;;9.65;85.54;99925.33;1709224;83;21085;-68
2021/09/15 03:23:56;;;;;;;6.30;4.40;;;;;;;9.62;85.36;99924.50;1670767;84;21022;-70
2021/09/15 03:26:22;;;;;;;7.85;4.22;;;;;;;9.53;85.39;99930.15;1686428;84;21030;-70
2021/09/15 03:28:51;;;;;;;4.83;4.03;;;;;;;9.45;85.45;99923.29;1717930;83;21066;-68
2021/09/15 03:31:17;;;;;;;6.03;3.35;;;;;;;9.44;85.35;99923.00;1706759;83;21037;-68
2021/09/15 03:33:44;;;;;;;5.03;3.70;;;;;;;9.41;85.26;99919.45;1702240;83;21027;-68
2021/09/15 03:36:12;;;;;;;5.78;3.90;;;;;;;9.38;85.24;99924.87;1695179;84;21042;-69
2021/09/15 03:38:39;;;;;;;;;;;;;;;9.33;85.23;99926.71;1669051;84;21002;-69
2021/09/15 03:41:05;;;;;;;5.33;3.85;;;;;;;9.27;85.28;99922.32;1695972;84;20442;-69
2021/09/15 03:43:33;;;;;;;4.92;3.45;;;;;;;9.20;85.29;99927.97;1695886;84;20998;-69
2021/09/15 03:46:00;;;;;;;5.67;3.75;;;;;;;9.19;85.29;99933.11;1715772;83;21002;-69
2021/09/15 03:48:26;;;;;;;8.45;3.75;;;;;;;9.18;85.31;99938.79;1705103;83;21018;-70
2021/09/15 03:50:53;;;;;;;;;;;;;;;9.15;85.49;99933.88;1709759;83;21042;-66
2021/09/15 03:53:19;;;;;;;6.60;3.85;;;;;;;9.15;85.59;99936.06;1695939;84;20433;-69
2021/09/15 03:55:48;;;;;;;5.15;3.50;;;;;;;9.14;85.53;99939.84;1697502;83;21623;-68
2021/09/15 03:58:14;;;;;;;4.95;3.80;;;;;;;9.15;85.53;99933.88;1714238;83;21046;-69
2021/09/15 04:00:40;;;;;;;7.87;4.50;;;;;;;9.11;85.66;99936.29;1695071;84;21017;-69
2021/09/15 04:03:09;;;;;;;5.72;3.75;;;;;;;9.10;85.86;99937.92;1696013;84;21084;-68
2021/09/15 04:05:35;;;;;;;7.00;3.90;;;;;;;9.14;85.92;99939.84;1662907;84;21096;-69
2021/09/15 04:08:04;;;;;;;5.92;3.90;;;;;;;9.20;85.94;99936.66;1696083;84;21547;-69
2021/09/15 04:10:31;;;;;;;5.78;3.87;;;;;;;9.24;85.94;99943.22;1679855;84;21563;-69
2021/09/15 04:12:59;;;;;;;7.17;4.12;;;;;;;9.23;86.07;99945.64;1685198;84;21039;-69
2021/09/15 04:15:25;;;;;;;;;;;;;;;9.24;86.15;99945.39;1701432;84;21378;-69
2021/09/15 04:17:54;;;;;;;7.45;4.92;;;;;;;9.29;86.06;99948.14;1679047;84;20429;-70
2021/09/15 04:20:22;;;;;;;5.53;4.40;;;;;;;9.29;86.15;99948.14;1682687;84;21014;-69
2021/09/15 04:22:50;;;;;;;7.05;4.60;;;;;;;9.29;86.18;99935.91;1693613;84;21782;-69
2021/09/15 04:33:34;;;;;;;5.25;3.85;;;;;;;9.29;86.37;99948.14;1726885;82;20937;-69
2021/09/15 04:36:01;;;;;;;6.42;3.45;;;;;;;9.36;86.32;99953.36;1639544;86;21673;-69
2021/09/15 04:38:28;;;;;;;4.90;3.65;;;;;;;9.42;86.21;99945.55;1708378;82;20991;-69
2021/09/15 04:40:55;;;;;;;5.70;3.55;;;;;;;9.46;86.07;99951.55;1705813;82;21706;-69
2021/09/15 04:43:22;;;;;;;7.58;3.85;;;;;;;9.49;86.11;99956.45;1698383;83;21463;-70
2021/09/15 04:45:49;;;;;;;4.75;3.52;;;;;;;9.56;86.10;99963.59;1712277;82;21051;-69
2021/09/15 04:48:16;;;;;;;7.47;3.83;;;;;;;9.64;85.91;99957.13;1712226;82;21000;-70
2021/09/15 04:50:42;;;;;;;6.08;3.55;;;;;;;9.76;85.82;99961.02;1640497;86;21051;-69
2021/09/15 04:53:09;;;;;;;6.60;3.42;;;;;;;9.87;85.72;99962.73;1716610;82;20971;-66
2021/09/15 04:55:37;;;;;;;6.70;3.95;;;;;;;9.94;85.61;99960.61;1709922;82;20988;-68
2021/09/15 04:58:04;;;;;;;7.60;4.60;;;;;;;9.98;85.75;99967.99;1711844;82;20944;-69
2021/09/15 05:00:31;;;;;;;7.33;4.50;;;;;;;10.03;85.81;99974.52;1711314;82;21062;-68
2021/09/15 05:02:59;;;;;;;6.00;4.00;;;;;;;10.11;85.75;99976.75;1648058;86;20996;-67
2021/09/15 05:05:27;;;;;;;5.65;4.20;;;;;;;10.25;85.61;99981.50;1708796;82;21076;-68
2021/09/15 05:07:55;;;;;;;6.22;4.22;;;;;;;10.41;85.54;99981.88;1724584;82;21056;-70
2021/09/15 05:10:25;;;;;;;7.85;4.12;;;;;;;10.63;85.80;99988.48;1721406;82;21453;-67
2021/09/15 05:12:53;;;;;;;10.08;4.65;;;;;;;10.90;86.13;99994.60;1735369;82;21048;-68
2021/09/15 05:15:19;;;;;;;10.93;4.08;;;;;;;11.20;86.43;99993.84;1746268;81;21015;-69
2021/09/15 05:17:46;;;;;;;8.80;4.53;;;;;;;11.56;86.37;99990.62;1734820;82;21094;-69
2021/09/15 05:20:16;;;;;;;7.37;4.33;;;;;;;11.96;86.17;99985.73;1706317;82;20987;-69
2021/09/15 05:22:42;;;;;;;10.32;4.55;;;;;;;12.37;86.15;99998.75;1740525;81;21110;-69
2021/09/15 05:25:11;;;;;;;7.10;4.42;;;;;;;12.78;85.71;99996.17;1751827;82;21062;-69
2021/09/15 05:27:39;;;;;;;8.65;5.12;;;;;;;13.18;84.88;100000.63;1752717;82;21027;-69
2021/09/15 05:30:10;;;;;;;8.28;4.53;;;;;;;13.58;83.48;99997.35;1750371;82;21020;-69
2021/09/15 05:32:38;;;;;;;5.67;3.85;;;;;;;13.93;81.81;99999.80;1685811;85;21043;-69
2021/09/15 05:35:07;;;;;;;7.83;4.30;;;;;;;14.25;80.28;100004.15;1723338;83;21070;-69
2021/09/15 05:37:34;;;;;;;7.17;4.33;;;;;;;14.57;78.58;100004.11;1686128;85;21434;-69
2021/09/15 05:40:01;;;;;;;6.62;4.08;;;;;;;14.90;77.66;100006.73;1712850;82;21034;-69
2021/09/15 05:42:30;;;;;;;7.60;3.70;;;;;;;15.25;76.37;100008.72;1753025;82;21082;-69
2021/09/15 05:45:01;;;;;;;7.80;4.60;;;;;;;15.48;75.02;100013.31;1753209;82;21051;-69
2021/09/15 05:47:25;;;;;;;10.82;4.92;;;;;;;15.68;73.35;100012.23;1730525;81;21498;-70
2021/09/15 05:49:53;;;;;;;8.30;4.97;;;;;;;15.79;71.68;100014.52;1723638;82;21022;-69
2021/09/15 05:52:20;;;;;;;7.47;4.50;;;;;;;15.92;70.35;100011.55;1686222;85;21075;-69
2021/09/15 05:54:49;;;;;;;7.25;4.55;;;;;;;16.05;69.13;100012.73;1728550;82;20960;-69
2021/09/15 05:57:15;;;;;;;10.30;4.58;;;;;;;16.09;68.56;100013.73;1725547;82;21007;-69
2021/09/15 05:59:41;;;;;;;;;;;;;;;16.12;67.75;100007.08;1755812;82;21006;-69
2021/09/15 06:02:09;;;;;;;6.78;3.98;;;;;;;16.28;66.89;100013.13;1725443;82;20106;-70
2021/09/15 06:04:37;;;;;;;11.15;3.80;;;;;;;16.32;66.60;100013.59;1750657;82;21019;-69
2021/09/15 06:07:08;;;;;;;10.45;3.77;;;;;;;16.45;64.76;100020.22;1748389;82;21780;-69
2021/09/15 06:09:34;;;;;;;;;;;;;;;16.58;64.44;100015.31;1755834;82;21616;-69
2021/09/15 06:12:01;;;;;;;5.97;3.52;;;;;;;16.75;63.68;100018.86;1740153;82;20126;-69
2021/09/15 06:14:29;;;;;;;8.20;4.15;;;;;;;16.77;62.71;100013.30;1678177;85;21519;-70
2021/09/15 06:16:55;;;;;;;;;;;;;;;16.82;61.02;100017.89;1712428;84;21613;-68
2021/09/15 06:20:27;;;;;;;8.60;4.35;;;;;;;16.97;58.25;100012.05;1801491;79;22855;-67
2021/09/15 06:23:10;;;;;;;7.22;4.05;;;;;;;16.77;58.36;100021.55;1752212;82;21035;-67
2021/09/15 06:25:42;;;;;;;6.40;3.70;;;;;;;16.73;57.53;100017.77;1749771;82;21011;-67
2021/09/15 06:28:10;;;;;;;6.45;3.08;;;;;;;16.79;57.27;100026.75;1752743;82;21042;-68
2021/09/15 06:30:37;;;;;;;6.55;3.55;;;;;;;16.89;57.44;100021.04;1753125;82;21439;-69
2021/09/15 06:33:03;;;;;;;6.20;2.70;;;;;;;16.95;56.55;100026.68;1747711;82;21529;-73
2021/09/15 06:35:30;;;;;;;6.62;3.40;;;;;;;16.93;56.39;100033.84;1678985;85;21129;-71
2021/09/15 06:37:58;;;;;;;5.67;3.12;;;;;;;17.10;55.66;100033.24;1683957;85;21062;-68
2021/09/15 06:40:25;;;;;;;8.15;3.27;;;;;;;17.32;53.96;100031.13;1683679;85;21601;-68
2021/09/15 06:42:51;;;;;;;7.75;2.90;;;;;;;17.43;53.56;100033.09;1627779;85;21156;-68
2021/09/15 06:45:17;;;;;;;;;;;;;;;17.65;53.42;100032.57;1689390;84;21032;-68
2021/09/15 06:47:44;;;;;;;5.33;2.37;;;;;;;17.73;50.05;100032.40;1678528;85;20573;-68
2021/09/15 06:50:14;;;;;;;5.20;2.00;;;;;;;17.57;49.85;100035.27;1678921;85;21621;-67
2021/09/15 06:52:42;;;;;;;7.03;2.30;;;;;;;17.60;49.77;100039.59;1689743;84;21046;-68
2021/09/15 06:55:10;;;;;;;3.90;1.62;;;;;;;17.68;49.61;100049.02;1684852;84;21011;-68
2021/09/15 06:57:37;;;;;;;4.08;1.90;;;;;;;17.86;49.32;100046.11;1678647;85;21067;-69
2021/09/15 07:00:05;;;;;;;4.10;1.92;;;;;;;18.01;47.96;100049.61;1678747;85;21039;-68
2021/09/15 07:02:32;;;;;;;5.58;2.20;;;;;;;17.99;47.06;100044.44;1680971;84;21058;-68
2021/09/15 07:04:58;;;;;;;6.37;1.95;;;;;;;18.19;46.38;100038.97;1649923;85;21062;-68
2021/09/15 07:07:26;;;;;;;3.22;1.80;;;;;;;18.28;45.13;100043.39;1689974;84;21594;-68
2021/09/15 07:09:52;;;;;;;5.62;2.00;;;;;;;18.39;45.12;100037.86;1702206;84;21608;-69
2021/09/15 07:12:19;;;;;;;4.33;1.70;;;;;;;18.46;42.68;100037.41;1701739;84;21701;-67
2021/09/15 07:14:45;;;;;;;5.30;2.37;;;;;;;18.28;42.87;100037.88;1678764;85;21062;-68
2021/09/15 07:17:13;;;;;;;4.35;1.80;;;;;;;18.43;43.52;100041.36;1678886;85;21082;-68
2021/09/15 07:19:41;;;;;;;2.92;1.50;;;;;;;18.60;44.08;100038.16;1670408;85;21059;-68
2021/09/15 07:22:08;;;;;;;3.47;1.60;;;;;;;18.80;42.66;100040.37;1654298;85;21087;-68
2021/09/15 07:24:35;;;;;;;2.98;1.60;;;;;;;18.90;40.30;100042.02;1696546;82;21078;-69
2021/09/15 07:27:02;;;;;;;4.42;1.30;;;;;;;18.83;41.07;100037.53;1735392;82;20991;-70
2021/09/15 07:29:28;;;;;;;2.77;0.95;;;;;;;18.99;41.19;100033.20;1739574;82;21570;-69
2021/09/15 07:31:55;;;;;;;5.17;2.37;;;;;;;19.35;40.19;100034.33;1738780;82;21816;-69
2021/09/15 07:34:21;;;;;;;3.22;1.80;;;;;;;19.52;40.04;100030.83;1718558;82;21007;-69
2021/09/15 07:36:49;;;;;;;3.67;1.70;;;;;;;19.44;40.66;100027.48;1728768;82;21082;-69
2021/09/15 07:39:15;;;;;;;4.35;1.42;;;;;;;19.50;39.80;100027.00;1724639;81;21067;-70
2021/09/15 07:41:41;;;;;;;3.05;1.57;;;;;;;19.58;40.65;100026.77;1739268;82;21039;-69
2021/09/15 07:44:07;;;;;;;3.83;1.72;;;;;;;19.67;40.05;100030.33;1728082;82;21059;-69
2021/09/15 07:46:34;;;;;;;5.87;1.70;;;;;;;19.72;39.73;100031.56;1724719;81;21579;-69
2021/09/15 07:49:00;;;;;;;4.90;1.90;;;;;;;19.73;40.05;100034.58;1740813;81;20992;-70
2021/09/15 07:51:27;;;;;;;3.77;1.62;;;;;;;19.78;39.74;100029.69;1749037;81;21027;-69
2021/09/15 07:53:53;;;;;;;4.17;2.12;;;;;;;19.95;40.12;100026.09;1738528;82;21024;-69
2021/09/15 07:56:19;;;;;;;3.90;1.82;;;;;;;20.13;39.65;100027.70;1717058;82;21023;-69
2021/09/15 07:58:46;;;;;;;4.03;1.82;;;;;;;20.45;39.37;100026.34;1735909;82;21130;-69
2021/09/15 08:01:13;;;;;;;4.03;1.55;;;;;;;20.56;39.30;100026.23;1706934;82;21166;-69
2021/09/15 08:03:39;;;;;;;3.65;1.10;;;;;;;20.72;38.68;100027.89;1709030;82;21019;-69
2021/09/15 08:06:06;;;;;;;4.55;1.67;;;;;;;21.00;38.71;100023.52;1651294;86;21043;-69
2021/09/15 08:08:32;;;;;;;3.08;1.50;;;;;;;21.14;38.21;100017.77;1723419;82;20960;-69
2021/09/15 08:11:00;;;;;;;4.55;1.40;;;;;;;21.07;38.58;100023.81;1711874;82;21075;-69
2021/09/15 08:13:27;;;;;;;3.33;1.30;;;;;;;21.02;37.11;100024.55;1729948;82;21476;-70
2021/09/15 08:15:53;;;;;;;3.50;1.45;;;;;;;20.72;38.29;100021.79;1735671;82;21055;-68
2021/09/15 08:18:19;;;;;;;3.05;1.07;;;;;;;20.97;38.08;100022.81;1709853;83;21035;-68
2021/09/15 08:20:46;;;;;;;7.67;1.35;;;;;;;21.22;36.87;100015.53;1730249;82;21036;-68
2021/09/15 08:23:14;;;;;;;2.70;1.17;;;;;;;21.18;36.62;100018.16;1719041;82;21022;-69
2021/09/15 08:25:40;;;;;;;3.92;1.20;;;;;;;21.18;36.62;100018.16;1722075;82;21705;-68
2021/09/15 08:28:07;;;;;;;3.30;0.98;;;;;;;20.96;36.39;100017.03;1729332;83;21511;-68
2021/09/15 08:30:33;;;;;;;3.52;1.17;;;;;;;20.66;38.02;100019.52;1731227;82;21459;-69
2021/09/15 08:33:00;;;;;;;2.65;0.90;;;;;;;20.60;38.45;100023.62;1732045;82;21568;-68
2021/09/15 08:35:26;;;;;;;3.55;1.00;;;;;;;20.67;37.84;100025.30;1721184;82;21578;-69
2021/09/15 08:37:53;;;;;;;3.58;1.35;;;;;;;20.55;37.65;100018.25;1728767;82;21112;-69
2021/09/15 08:40:19;;;;;;;1.92;0.80;;;;;;;20.43;37.45;100018.15;1717458;82;21923;-70
2021/09/15 08:42:45;;;;;;;3.17;0.95;;;;;;;20.46;38.18;100023.02;1717745;83;21622;-70
2021/09/15 08:45:12;;;;;;;2.12;1.12;;;;;;;20.82;38.86;100019.22;1720217;82;21052;-70
2021/09/15 08:47:43;;;;;;;3.55;1.05;;;;;;;21.44;38.50;100009.66;1729716;83;21579;-69
2021/09/15 08:50:11;;;;;;;4.00;1.20;;;;;;;21.53;38.44;100008.22;1718694;82;21036;-69
2021/09/15 08:52:37;;;;;;;2.15;1.10;;;;;;;21.53;38.44;100008.22;1717704;82;21048;-69
2021/09/15 08:55:05;;;;;;;2.35;1.20;;;;;;;21.60;38.94;100005.72;1717365;82;21124;-70
2021/09/15 08:57:33;;;;;;;2.20;1.00;;;;;;;21.84;38.79;100001.67;1718253;82;21565;-69
2021/09/15 09:00:00;;;;;;;2.55;1.30;;;;;;;22.18;37.65;99999.15;1693098;82;21055;-69
2021/09/15 09:02:26;;;;;;;3.50;1.37;;;;;;;22.18;36.64;99998.58;1747221;82;21569;-69
2021/09/15 09:04:55;;;;;;;2.60;1.37;;;;;;;22.07;36.71;99994.61;1694453;82;21707;-69
2021/09/15 09:07:23;;;;;;;5.40;1.20;;;;;;;21.93;37.57;99998.86;1746226;82;21039;-70
2021/09/15 09:09:52;;;;;;;3.33;1.20;;;;;;;21.87;37.41;99999.59;1743386;82;21034;-69
2021/09/15 09:12:24;;;;;;;3.85;1.10;;;;;;;21.73;36.71;100001.84;1730060;82;21025;-68
2021/09/15 09:14:51;;;;;;;2.92;1.00;;;;;;;21.52;37.30;99999.66;1730012;82;21044;-69
2021/09/15 09:17:32;;;;;;;4.20;1.40;;;;;;;21.25;37.29;100001.02;1722606;82;21058;-69
2021/09/15 09:20:24;;;;;;;2.55;1.20;;;;;;;21.13;37.86;100004.50;1720216;82;21022;-69
2021/09/15 09:23:13;;;;;;;1.82;1.05;;;;;;;20.86;38.19;99993.89;1723266;83;21610;-69
2021/09/15 09:25:58;;;;;;;3.90;1.17;;;;;;;20.86;38.19;99993.89;1730212;82;21037;-69
2021/09/15 09:28:32;;;;;;;2.80;1.10;;;;;;;20.53;39.43;99994.28;1724483;82;21475;-68
2021/09/15 09:31:01;;;;;;;5.80;1.40;;;;;;;20.46;39.35;99987.06;1681365;85;21087;-69
2021/09/15 09:33:30;;;;;;;4.75;1.10;;;;;;;20.27;38.92;99988.27;1723649;82;21026;-69
2021/09/15 09:36:00;;;;;;;2.45;1.10;;;;;;;20.15;40.03;99985.92;1722994;82;21052;-69
2021/09/15 09:38:41;;;;;;;2.33;1.15;;;;;;;20.11;40.80;99980.24;1723295;83;21642;-69
2021/09/15 09:41:19;;;;;;;6.40;1.57;;;;;;;20.15;40.79;99990.07;1733243;82;21077;-69
2021/09/15 09:43:49;;;;;;;;;;;;;;;19.98;40.72;99981.82;1753587;82;21506;-69
2021/09/15 09:46:19;;;;;;;2.47;1.22;;;;;;;19.99;41.17;99975.95;1753161;82;20103;-68
2021/09/15 09:48:56;;;;;;;2.65;0.95;;;;;;;20.01;40.46;99966.78;1753248;82;21034;-69
2021/09/15 09:51:35;;;;;;;3.15;1.20;;;;;;;19.97;39.95;99969.95;1752019;82;21039;-70
2021/09/15 09:54:16;;;;;;;4.65;1.35;;;;;;;19.85;40.41;99975.32;1753245;82;20979;-70
2021/09/15 09:56:44;;;;;;;2.85;1.25;;;;;;;19.67;39.90;99973.72;1753214;82;21043;-70
2021/09/15 09:59:12;;;;;;;3.77;0.90;;;;;;;19.52;39.96;99975.02;1752843;82;21078;-69
2021/09/15 10:01:42;;;;;;;3.67;1.02;;;;;;;19.45;39.79;99974.69;1751166;82;21015;-70
2021/09/15 10:04:09;;;;;;;3.35;1.20;;;;;;;19.43;40.53;99974.22;1753010;82;20986;-69
2021/09/15 10:06:37;;;;;;;2.45;1.02;;;;;;;19.50;40.48;99973.73;1750907;82;21058;-69
2021/09/15 10:09:05;;;;;;;2.12;0.90;;;;;;;19.49;39.75;99970.72;1753076;82;21030;-69
2021/09/15 10:11:32;;;;;;;2.08;0.70;;;;;;;19.46;39.21;99968.05;1753171;82;21078;-70
2021/09/15 10:13:59;;;;;;;4.47;1.15;;;;;;;19.48;38.31;99964.41;1701822;82;21066;-70
2021/09/15 10:16:25;;;;;;;1.75;0.93;;;;;;;19.46;40.02;99964.47;1752035;82;21462;-70
2021/09/15 10:19:03;;;;;;;1.55;0.70;;;;;;;19.56;39.93;99961.38;1750873;82;20976;-68
2021/09/15 10:21:31;;;;;;;2.10;1.00;;;;;;;19.63;38.57;99958.37;1739358;81;21586;-69
2021/09/15 10:23:59;;;;;;;1.15;0.72;;;;;;;19.55;39.23;99962.53;1735719;82;20937;-69
2021/09/15 10:26:38;;;;;;;4.72;1.05;;;;;;;19.53;39.29;99955.13;1663765;86;21634;-67
2021/09/15 10:29:31;;;;;;;3.83;1.37;;;;;;;19.60;39.52;99953.50;1710045;84;21008;-68
2021/09/15 10:32:10;;;;;;;3.37;1.52;;;;;;;19.65;39.03;99956.11;1663959;86;21593;-69
2021/09/15 10:34:42;;;;;;;1.98;0.98;;;;;;;19.68;39.23;99943.59;1710140;82;21546;-67
2021/09/15 10:37:21;;;;;;;3.27;1.30;;;;;;;19.74;38.73;99945.03;1663705;86;21114;-69
2021/09/15 10:40:01;;;;;;;1.82;0.93;;;;;;;19.76;39.09;99941.39;1709035;82;21051;-71
2021/09/15 10:42:39;;;;;;;3.72;1.20;;;;;;;19.76;38.63;99942.77;1694906;85;21067;-68
2021/09/15 10:45:26;;;;;;;2.55;1.10;;;;;;;19.80;39.00;99936.84;1712590;82;21894;-67
2021/09/15 10:48:04;;;;;;;4.28;1.27;;;;;;;19.76;38.78;99935.87;1724543;82;21006;-68
2021/09/15 10:50:40;;;;;;;5.03;1.17;;;;;;;19.77;38.37;99936.09;1723728;82;21606;-67
2021/09/15 10:53:12;;;;;;;5.12;1.15;;;;;;;19.71;38.56;99934.64;1724477;82;21044;-68
2021/09/15 10:55:46;;;;;;;3.58;1.32;;;;;;;19.65;37.91;99926.30;1714098;82;21048;-68
2021/09/15 10:58:24;;;;;;;3.10;1.10;;;;;;;19.61;37.90;99926.70;1712363;82;20984;-68
2021/09/15 11:00:53;;;;;;;4.12;1.20;;;;;;;19.60;38.10;99927.83;1718931;82;21061;-66
2021/09/15 11:03:40;;;;;;;4.80;1.47;;;;;;;19.63;38.99;99923.03;1714491;82;20937;-68
2021/09/15 11:06:17;;;;;;;4.15;1.32;;;;;;;19.69;38.77;99920.36;1708496;82;21079;-68
2021/09/15 11:08:50;;;;;;;4.05;1.67;;;;;;;19.79;38.62;99914.48;1726278;82;21000;-66
2021/09/15 11:11:27;;;;;;;4.58;1.40;;;;;;;19.81;38.06;99917.72;1729040;82;21047;-68
2021/09/15 11:14:04;;;;;;;4.00;1.80;;;;;;;19.69;38.26;99916.22;1663969;86;21075;-68
2021/09/15 11:16:38;;;;;;;4.45;1.52;;;;;;;19.68;38.62;99910.45;1732418;82;21052;-68
2021/09/15 11:19:16;;;;;;;2.22;1.20;;;;;;;19.68;38.38;99905.73;1737149;82;20992;-67
2021/09/15 11:21:53;;;;;;;2.65;1.30;;;;;;;19.71;39.27;99904.27;1748212;81;21098;-69
2021/09/15 11:24:22;;;;;;;3.08;1.32;;;;;;;19.78;38.80;99905.39;1746053;82;20975;-67
2021/09/15 11:26:53;;;;;;;1.92;1.10;;;;;;;19.84;38.68;99901.87;1741563;82;21082;-69
2021/09/15 11:29:48;;;;;;;4.50;1.30;;;;;;;19.92;39.07;99898.28;1686176;85;20992;-68
2021/09/15 11:32:15;;;;;;;2.55;0.90;;;;;;;19.97;38.59;99893.97;1734415;82;21083;-67
2021/09/15 11:34:46;;;;;;;4.30;1.20;;;;;;;19.97;38.58;99893.97;1753354;82;21003;-68
2021/09/15 11:37:28;;;;;;;2.27;1.10;;;;;;;20.01;38.42;99892.73;1733940;82;21545;-69
2021/09/15 11:40:02;;;;;;;2.37;1.10;;;;;;;19.98;37.96;99887.28;1731846;82;21042;-68
2021/09/15 11:42:31;;;;;;;3.20;1.10;;;;;;;19.96;38.35;99887.37;1722782;82;21106;-70
2021/09/15 11:45:16;;;;;;;4.22;1.50;;;;;;;19.98;39.33;99882.35;1711194;82;21031;-68
2021/09/15 11:47:44;;;;;;;2.30;0.90;;;;;;;20.03;39.55;99876.63;1753431;82;21051;-67
2021/09/15 11:50:24;;;;;;;1.70;0.90;;;;;;;20.11;38.53;99882.13;1747487;80;21034;-67
2021/09/15 11:52:57;;;;;;;2.25;1.02;;;;;;;20.09;38.00;99877.49;1733614;82;21600;-67
2021/09/15 11:55:24;;;;;;;5.58;1.40;;;;;;;20.08;38.64;99870.94;1731479;82;21071;-67
2021/09/15 11:57:52;;;;;;;4.80;1.07;;;;;;;20.16;38.25;99867.30;1750016;82;21046;-68
2021/09/15 12:00:19;;;;;;;3.50;1.07;;;;;;;20.22;37.55;99870.14;1753276;82;21078;-68